sensor_id;sensor_type;location;lat;lon;timestamp;P1;durP1;ratioP1;P2;durP2;ratioP2
57899;SDS011;60605;53.716;19.940;2022-08-23T00:02:20;17.30;;;6.30;;
57899;SDS011;60605;53.716;19.940;2022-08-23T00:07:26;9.40;;;4.80;;
57899;SDS011;60605;53.716;19.940;2022-08-23T00:12:31;9.10;;;4.50;;
57899;SDS011;60605;53.716;19.940;2022-08-23T00:17:34;5.40;;;3.80;;
57899;SDS011;60605;53.716;19.940;2022-08-23T00:22:38;8.10;;;4.70;;
57899;SDS011;60605;53.716;19.940;2022-08-23T00:27:43;5.10;;;4.40;;
57899;SDS011;60605;53.716;19.940;2022-08-23T00:32:46;4.80;;;4.10;;
57899;SDS011;60605;53.716;19.940;2022-08-23T00:37:50;6.00;;;4.00;;
57899;SDS011;60605;53.716;19.940;2022-08-23T00:48:37;4.90;;;4.40;;
57899;SDS011;60605;53.716;19.940;2022-08-23T00:53:43;4.90;;;4.50;;
57899;SDS011;60605;53.716;19.940;2022-08-23T00:58:53;5.50;;;4.20;;
57899;SDS011;60605;53.716;19.940;2022-08-23T01:03:58;5.30;;;4.40;;
57899;SDS011;60605;53.716;19.940;2022-08-23T01:09:08;7.20;;;4.90;;
57899;SDS011;60605;53.716;19.940;2022-08-23T01:14:17;6.70;;;5.20;;
57899;SDS011;60605;53.716;19.940;2022-08-23T01:19:29;6.90;;;4.50;;
57899;SDS011;60605;53.716;19.940;2022-08-23T01:24:37;6.70;;;4.70;;
57899;SDS011;60605;53.716;19.940;2022-08-23T01:30:04;16.10;;;8.00;;
57899;SDS011;60605;53.716;19.940;2022-08-23T01:35:10;23.40;;;11.00;;
57899;SDS011;60605;53.716;19.940;2022-08-23T01:40:15;24.10;;;10.00;;
57899;SDS011;60605;53.716;19.940;2022-08-23T01:45:19;22.30;;;10.10;;
57899;SDS011;60605;53.716;19.940;2022-08-23T01:50:22;17.80;;;7.70;;
57899;SDS011;60605;53.716;19.940;2022-08-23T01:55:26;9.50;;;5.50;;
57899;SDS011;60605;53.716;19.940;2022-08-23T02:00:32;6.70;;;5.00;;
57899;SDS011;60605;53.716;19.940;2022-08-23T02:05:38;6.30;;;5.60;;
57899;SDS011;60605;53.716;19.940;2022-08-23T02:10:44;6.20;;;5.30;;
57899;SDS011;60605;53.716;19.940;2022-08-23T02:15:48;7.60;;;4.70;;
57899;SDS011;60605;53.716;19.940;2022-08-23T02:20:53;6.80;;;4.80;;
57899;SDS011;60605;53.716;19.940;2022-08-23T02:25:56;5.50;;;5.00;;
57899;SDS011;60605;53.716;19.940;2022-08-23T02:31:00;28.90;;;13.60;;
57899;SDS011;60605;53.716;19.940;2022-08-23T02:36:04;25.40;;;11.80;;
57899;SDS011;60605;53.716;19.940;2022-08-23T02:41:07;16.50;;;9.00;;
57899;SDS011;60605;53.716;19.940;2022-08-23T02:46:11;9.10;;;5.70;;
57899;SDS011;60605;53.716;19.940;2022-08-23T02:51:15;6.90;;;5.20;;
57899;SDS011;60605;53.716;19.940;2022-08-23T02:56:19;5.20;;;4.80;;
57899;SDS011;60605;53.716;19.940;2022-08-23T03:01:27;5.20;;;4.70;;
57899;SDS011;60605;53.716;19.940;2022-08-23T03:06:33;8.50;;;5.20;;
57899;SDS011;60605;53.716;19.940;2022-08-23T03:11:41;5.30;;;4.80;;
57899;SDS011;60605;53.716;19.940;2022-08-23T03:16:47;7.20;;;4.80;;
57899;SDS011;60605;53.716;19.940;2022-08-23T03:21:50;6.30;;;5.20;;
57899;SDS011;60605;53.716;19.940;2022-08-23T03:26:53;10.20;;;5.70;;
57899;SDS011;60605;53.716;19.940;2022-08-23T03:31:57;10.20;;;6.60;;
57899;SDS011;60605;53.716;19.940;2022-08-23T03:37:01;15.30;;;7.70;;
57899;SDS011;60605;53.716;19.940;2022-08-23T03:42:05;13.20;;;8.60;;
57899;SDS011;60605;53.716;19.940;2022-08-23T03:47:09;12.40;;;8.90;;
57899;SDS011;60605;53.716;19.940;2022-08-23T03:52:14;15.30;;;9.00;;
57899;SDS011;60605;53.716;19.940;2022-08-23T03:57:17;22.00;;;11.20;;
57899;SDS011;60605;53.716;19.940;2022-08-23T04:02:21;23.90;;;10.70;;
57899;SDS011;60605;53.716;19.940;2022-08-23T04:07:24;23.20;;;9.90;;
57899;SDS011;60605;53.716;19.940;2022-08-23T04:12:28;16.80;;;10.40;;
57899;SDS011;60605;53.716;19.940;2022-08-23T04:17:32;17.80;;;9.90;;
57899;SDS011;60605;53.716;19.940;2022-08-23T04:22:36;28.00;;;10.80;;
57899;SDS011;60605;53.716;19.940;2022-08-23T04:27:39;15.40;;;9.90;;
57899;SDS011;60605;53.716;19.940;2022-08-23T04:32:44;23.50;;;10.70;;
57899;SDS011;60605;53.716;19.940;2022-08-23T04:37:47;13.70;;;10.60;;
57899;SDS011;60605;53.716;19.940;2022-08-23T04:42:51;36.80;;;10.10;;
57899;SDS011;60605;53.716;19.940;2022-08-23T04:47:54;30.50;;;9.00;;
57899;SDS011;60605;53.716;19.940;2022-08-23T04:52:58;32.60;;;8.90;;
57899;SDS011;60605;53.716;19.940;2022-08-23T04:58:02;24.90;;;9.40;;
57899;SDS011;60605;53.716;19.940;2022-08-23T05:03:07;34.00;;;9.70;;
57899;SDS011;60605;53.716;19.940;2022-08-23T05:08:10;40.10;;;8.60;;
57899;SDS011;60605;53.716;19.940;2022-08-23T05:13:14;17.40;;;8.30;;
57899;SDS011;60605;53.716;19.940;2022-08-23T05:18:17;29.00;;;9.50;;
57899;SDS011;60605;53.716;19.940;2022-08-23T05:23:20;16.20;;;8.30;;
57899;SDS011;60605;53.716;19.940;2022-08-23T05:28:33;9.00;;;8.20;;
57899;SDS011;60605;53.716;19.940;2022-08-23T05:33:39;8.00;;;7.20;;
57899;SDS011;60605;53.716;19.940;2022-08-23T05:38:44;12.00;;;7.70;;
57899;SDS011;60605;53.716;19.940;2022-08-23T05:43:51;8.60;;;7.30;;
57899;SDS011;60605;53.716;19.940;2022-08-23T05:48:55;8.30;;;7.20;;
57899;SDS011;60605;53.716;19.940;2022-08-23T05:54:00;8.30;;;6.80;;
57899;SDS011;60605;53.716;19.940;2022-08-23T05:59:06;8.10;;;7.30;;
57899;SDS011;60605;53.716;19.940;2022-08-23T06:04:14;7.10;;;6.20;;
57899;SDS011;60605;53.716;19.940;2022-08-23T06:09:17;9.70;;;6.20;;
57899;SDS011;60605;53.716;19.940;2022-08-23T06:14:21;9.50;;;7.20;;
57899;SDS011;60605;53.716;19.940;2022-08-23T06:19:25;6.90;;;6.00;;
57899;SDS011;60605;53.716;19.940;2022-08-23T06:24:28;8.10;;;6.70;;
57899;SDS011;60605;53.716;19.940;2022-08-23T06:29:32;10.00;;;5.70;;
57899;SDS011;60605;53.716;19.940;2022-08-23T06:34:36;7.70;;;6.20;;
57899;SDS011;60605;53.716;19.940;2022-08-23T06:39:40;6.80;;;5.80;;
57899;SDS011;60605;53.716;19.940;2022-08-23T06:44:44;6.50;;;5.80;;
57899;SDS011;60605;53.716;19.940;2022-08-23T06:49:47;10.90;;;5.20;;
57899;SDS011;60605;53.716;19.940;2022-08-23T06:54:59;8.10;;;5.60;;
57899;SDS011;60605;53.716;19.940;2022-08-23T07:00:05;8.80;;;5.60;;
57899;SDS011;60605;53.716;19.940;2022-08-23T07:05:10;7.60;;;5.20;;
57899;SDS011;60605;53.716;19.940;2022-08-23T07:10:15;7.30;;;5.20;;
57899;SDS011;60605;53.716;19.940;2022-08-23T07:15:18;9.30;;;5.00;;
57899;SDS011;60605;53.716;19.940;2022-08-23T07:20:22;7.10;;;4.60;;
57899;SDS011;60605;53.716;19.940;2022-08-23T07:25:26;10.70;;;5.20;;
57899;SDS011;60605;53.716;19.940;2022-08-23T07:30:29;7.00;;;5.00;;
57899;SDS011;60605;53.716;19.940;2022-08-23T07:35:33;5.50;;;5.00;;
57899;SDS011;60605;53.716;19.940;2022-08-23T07:40:42;7.70;;;5.00;;
57899;SDS011;60605;53.716;19.940;2022-08-23T07:45:55;6.60;;;4.90;;
57899;SDS011;60605;53.716;19.940;2022-08-23T07:51:00;5.80;;;5.10;;
57899;SDS011;60605;53.716;19.940;2022-08-23T07:56:06;11.80;;;7.50;;
57899;SDS011;60605;53.716;19.940;2022-08-23T08:01:14;13.30;;;6.80;;
57899;SDS011;60605;53.716;19.940;2022-08-23T08:06:27;10.90;;;7.00;;
57899;SDS011;60605;53.716;19.940;2022-08-23T08:11:39;10.30;;;5.40;;
57899;SDS011;60605;53.716;19.940;2022-08-23T08:16:46;8.10;;;4.70;;
57899;SDS011;60605;53.716;19.940;2022-08-23T08:21:50;8.70;;;4.60;;
57899;SDS011;60605;53.716;19.940;2022-08-23T08:26:54;9.10;;;4.90;;
57899;SDS011;60605;53.716;19.940;2022-08-23T08:31:57;7.40;;;4.00;;
57899;SDS011;60605;53.716;19.940;2022-08-23T08:37:01;7.70;;;3.70;;
57899;SDS011;60605;53.716;19.940;2022-08-23T08:47:44;8.00;;;3.60;;
57899;SDS011;60605;53.716;19.940;2022-08-23T08:58:40;7.40;;;3.90;;
57899;SDS011;60605;53.716;19.940;2022-08-23T09:03:50;9.10;;;3.60;;
57899;SDS011;60605;53.716;19.940;2022-08-23T09:19:34;10.60;;;4.70;;
57899;SDS011;60605;53.716;19.940;2022-08-23T09:24:40;15.00;;;4.10;;
57899;SDS011;60605;53.716;19.940;2022-08-23T09:29:51;12.90;;;4.50;;
57899;SDS011;60605;53.716;19.940;2022-08-23T09:35:12;10.10;;;4.00;;
57899;SDS011;60605;53.716;19.940;2022-08-23T09:45:24;10.80;;;4.00;;
57899;SDS011;60605;53.716;19.940;2022-08-23T09:50:38;15.70;;;4.60;;
57899;SDS011;60605;53.716;19.940;2022-08-23T09:55:46;10.10;;;4.70;;
57899;SDS011;60605;53.716;19.940;2022-08-23T10:01:28;14.00;;;5.30;;
57899;SDS011;60605;53.716;19.940;2022-08-23T10:06:29;14.70;;;5.20;;
57899;SDS011;60605;53.716;19.940;2022-08-23T10:11:42;14.20;;;5.60;;
57899;SDS011;60605;53.716;19.940;2022-08-23T10:16:56;16.50;;;5.70;;
57899;SDS011;60605;53.716;19.940;2022-08-23T10:33:29;11.60;;;5.30;;
57899;SDS011;60605;53.716;19.940;2022-08-23T10:38:58;15.80;;;5.40;;
57899;SDS011;60605;53.716;19.940;2022-08-23T10:44:23;10.60;;;5.40;;
57899;SDS011;60605;53.716;19.940;2022-08-23T10:49:37;12.30;;;5.50;;
57899;SDS011;60605;53.716;19.940;2022-08-23T10:54:47;14.50;;;5.60;;
57899;SDS011;60605;53.716;19.940;2022-08-23T11:00:17;9.40;;;5.50;;
57899;SDS011;60605;53.716;19.940;2022-08-23T11:05:28;15.50;;;5.30;;
57899;SDS011;60605;53.716;19.940;2022-08-23T11:15:42;11.00;;;5.90;;
57899;SDS011;60605;53.716;19.940;2022-08-23T11:25:52;9.90;;;5.40;;
57899;SDS011;60605;53.716;19.940;2022-08-23T11:36:22;13.20;;;5.50;;
57899;SDS011;60605;53.716;19.940;2022-08-23T11:41:28;24.60;;;6.30;;
57899;SDS011;60605;53.716;19.940;2022-08-23T11:52:18;12.70;;;6.70;;
57899;SDS011;60605;53.716;19.940;2022-08-23T12:03:04;15.30;;;6.20;;
57899;SDS011;60605;53.716;19.940;2022-08-23T12:18:22;14.10;;;5.60;;
57899;SDS011;60605;53.716;19.940;2022-08-23T12:23:28;13.50;;;6.10;;
57899;SDS011;60605;53.716;19.940;2022-08-23T12:28:34;11.60;;;6.20;;
57899;SDS011;60605;53.716;19.940;2022-08-23T12:33:59;14.60;;;6.10;;
57899;SDS011;60605;53.716;19.940;2022-08-23T12:44:11;15.80;;;5.90;;
57899;SDS011;60605;53.716;19.940;2022-08-23T12:54:49;14.10;;;6.00;;
57899;SDS011;60605;53.716;19.940;2022-08-23T13:05:24;9.80;;;5.50;;
57899;SDS011;60605;53.716;19.940;2022-08-23T13:10:43;17.80;;;6.20;;
57899;SDS011;60605;53.716;19.940;2022-08-23T13:15:55;10.70;;;6.00;;
57899;SDS011;60605;53.716;19.940;2022-08-23T13:26:41;13.50;;;6.30;;
57899;SDS011;60605;53.716;19.940;2022-08-23T13:31:57;13.10;;;6.40;;
57899;SDS011;60605;53.716;19.940;2022-08-23T13:47:54;17.10;;;7.00;;
57899;SDS011;60605;53.716;19.940;2022-08-23T18:26:09;12.50;;;6.20;;
57899;SDS011;60605;53.716;19.940;2022-08-23T18:31:33;14.30;;;7.30;;
57899;SDS011;60605;53.716;19.940;2022-08-23T18:36:36;10.50;;;7.60;;
57899;SDS011;60605;53.716;19.940;2022-08-23T18:41:43;8.50;;;6.20;;
57899;SDS011;60605;53.716;19.940;2022-08-23T18:46:46;8.80;;;6.90;;
57899;SDS011;60605;53.716;19.940;2022-08-23T18:51:51;10.80;;;8.00;;
57899;SDS011;60605;53.716;19.940;2022-08-23T18:56:55;12.80;;;8.90;;
57899;SDS011;60605;53.716;19.940;2022-08-23T19:01:59;17.00;;;9.30;;
57899;SDS011;60605;53.716;19.940;2022-08-23T19:07:04;14.30;;;10.30;;
57899;SDS011;60605;53.716;19.940;2022-08-23T19:12:09;16.40;;;10.60;;
57899;SDS011;60605;53.716;19.940;2022-08-23T19:17:14;12.90;;;10.50;;
57899;SDS011;60605;53.716;19.940;2022-08-23T19:22:20;14.50;;;10.80;;
57899;SDS011;60605;53.716;19.940;2022-08-23T19:27:26;16.20;;;10.90;;
57899;SDS011;60605;53.716;19.940;2022-08-23T19:32:30;17.10;;;11.30;;
57899;SDS011;60605;53.716;19.940;2022-08-23T19:37:37;13.90;;;10.90;;
57899;SDS011;60605;53.716;19.940;2022-08-23T19:42:41;17.40;;;12.00;;
57899;SDS011;60605;53.716;19.940;2022-08-23T19:47:46;14.20;;;11.60;;
57899;SDS011;60605;53.716;19.940;2022-08-23T19:52:56;17.90;;;13.20;;
57899;SDS011;60605;53.716;19.940;2022-08-23T19:58:01;14.80;;;12.60;;
57899;SDS011;60605;53.716;19.940;2022-08-23T20:03:05;15.50;;;13.00;;
57899;SDS011;60605;53.716;19.940;2022-08-23T20:08:08;15.30;;;12.20;;
57899;SDS011;60605;53.716;19.940;2022-08-23T20:13:12;17.40;;;12.60;;
57899;SDS011;60605;53.716;19.940;2022-08-23T20:18:16;16.40;;;12.50;;
57899;SDS011;60605;53.716;19.940;2022-08-23T20:23:20;20.00;;;13.00;;
57899;SDS011;60605;53.716;19.940;2022-08-23T20:28:43;17.80;;;14.30;;
57899;SDS011;60605;53.716;19.940;2022-08-23T20:34:04;19.60;;;13.70;;
57899;SDS011;60605;53.716;19.940;2022-08-23T20:39:11;19.80;;;14.40;;
57899;SDS011;60605;53.716;19.940;2022-08-23T20:44:16;20.90;;;13.50;;
57899;SDS011;60605;53.716;19.940;2022-08-23T20:49:23;17.50;;;12.60;;
57899;SDS011;60605;53.716;19.940;2022-08-23T20:54:27;15.30;;;11.30;;
57899;SDS011;60605;53.716;19.940;2022-08-23T20:59:31;15.80;;;11.30;;
57899;SDS011;60605;53.716;19.940;2022-08-23T21:04:34;18.60;;;11.80;;
57899;SDS011;60605;53.716;19.940;2022-08-23T21:09:41;16.60;;;11.20;;
57899;SDS011;60605;53.716;19.940;2022-08-23T21:14:45;12.20;;;10.60;;
57899;SDS011;60605;53.716;19.940;2022-08-23T21:19:49;13.00;;;10.40;;
57899;SDS011;60605;53.716;19.940;2022-08-23T21:24:52;13.40;;;10.30;;
57899;SDS011;60605;53.716;19.940;2022-08-23T21:29:56;14.40;;;10.90;;
57899;SDS011;60605;53.716;19.940;2022-08-23T21:35:00;14.70;;;10.50;;
57899;SDS011;60605;53.716;19.940;2022-08-23T21:40:04;11.20;;;9.70;;
57899;SDS011;60605;53.716;19.940;2022-08-23T21:45:09;12.00;;;9.30;;
57899;SDS011;60605;53.716;19.940;2022-08-23T21:50:13;12.30;;;9.70;;
57899;SDS011;60605;53.716;19.940;2022-08-23T21:55:17;9.90;;;8.90;;
57899;SDS011;60605;53.716;19.940;2022-08-23T22:00:20;10.40;;;9.20;;
57899;SDS011;60605;53.716;19.940;2022-08-23T22:05:25;10.70;;;9.00;;
57899;SDS011;60605;53.716;19.940;2022-08-23T22:10:29;12.60;;;9.80;;
57899;SDS011;60605;53.716;19.940;2022-08-23T22:15:32;11.70;;;10.50;;
57899;SDS011;60605;53.716;19.940;2022-08-23T22:20:36;11.20;;;9.60;;
57899;SDS011;60605;53.716;19.940;2022-08-23T22:25:40;13.70;;;9.90;;
57899;SDS011;60605;53.716;19.940;2022-08-23T22:30:44;11.40;;;9.40;;
57899;SDS011;60605;53.716;19.940;2022-08-23T22:35:47;12.80;;;11.50;;
57899;SDS011;60605;53.716;19.940;2022-08-23T22:40:50;13.80;;;10.40;;
57899;SDS011;60605;53.716;19.940;2022-08-23T22:45:55;11.40;;;9.50;;
57899;SDS011;60605;53.716;19.940;2022-08-23T22:51:12;15.50;;;10.00;;
57899;SDS011;60605;53.716;19.940;2022-08-23T22:56:26;11.90;;;9.20;;
57899;SDS011;60605;53.716;19.940;2022-08-23T23:01:33;14.60;;;9.70;;
57899;SDS011;60605;53.716;19.940;2022-08-23T23:06:39;12.70;;;8.70;;
57899;SDS011;60605;53.716;19.940;2022-08-23T23:11:43;13.50;;;8.60;;
57899;SDS011;60605;53.716;19.940;2022-08-23T23:16:47;13.00;;;8.70;;
57899;SDS011;60605;53.716;19.940;2022-08-23T23:21:52;9.40;;;7.80;;
57899;SDS011;60605;53.716;19.940;2022-08-23T23:26:58;11.20;;;7.60;;
57899;SDS011;60605;53.716;19.940;2022-08-23T23:32:03;9.70;;;7.50;;
57899;SDS011;60605;53.716;19.940;2022-08-23T23:37:07;10.20;;;7.20;;
57899;SDS011;60605;53.716;19.940;2022-08-23T23:42:10;10.70;;;7.10;;
57899;SDS011;60605;53.716;19.940;2022-08-23T23:47:14;10.30;;;7.30;;
57899;SDS011;60605;53.716;19.940;2022-08-23T23:52:18;10.10;;;6.60;;
57899;SDS011;60605;53.716;19.940;2022-08-23T23:57:21;11.40;;;7.50;;
